KCAR/CAR METAR and TAF weather

Enter ICAO airport designator
Station Type Date Time Source
KCAR METAR 2020/07/12 03:54 UTC NOAA

KCAR 120354Z AUTO 17013G19KT 10SM BKN014 22/19 A2964 RMK AO2 SLP036 T02220189


Station Type Date Time Source
KCAR Decoded METAR 2020/07/12 03:54 UTC NOAA

CARIBOU MUNICIPAL AIRPORT, ME, United States (KCAR) 46-52N 68-01W 191M
Jul 11, 2020 - 11:54 PM EDT / 2020.07.12 0354 UTC
Wind: from the S (170 degrees) at 15 MPH (13 KT) gusting to 22 MPH (19 KT):0
Visibility: 10 mile(s):0
Sky conditions: mostly cloudy
Temperature: 72.0 F (22.2 C)
Dew Point: 66.0 F (18.9 C)
Relative Humidity: 81%
Pressure (altimeter): 29.64 in. Hg (1003 hPa)
ob: KCAR 120354Z AUTO 17013G19KT 10SM BKN014 22/19 A2964 RMK AO2 SLP036 T02220189
cycle: 4

Station Type Date Time Source
KCAR TAF 2020/07/12 04:54 UTC NOAA

TAF
AMD KCAR 120353Z 1204/1224 15010KT P6SM SCT007 BKN015 WS020/19040KT
FM120600 15008KT 4SM BR OVC006
FM121200 18010KT P6SM OVC008
FM121500 18010KT P6SM VCSH OVC015
FM121900 20010KT P6SM VCTS BKN030CB

Example: see airport list